createdAt,value
2019-04-14T00:02:03.188Z,33.80
2019-04-14T00:04:36.814Z,35.83
2019-04-14T00:07:07.884Z,33.87
2019-04-14T00:09:38.036Z,34.53
2019-04-14T00:12:10.489Z,33.83
2019-04-14T00:14:40.370Z,37.03
2019-04-14T00:17:09.376Z,34.60
2019-04-14T00:19:39.155Z,33.07
2019-04-14T00:22:09.358Z,32.50
2019-04-14T00:24:38.460Z,38.20
2019-04-14T00:27:08.431Z,40.90
2019-04-14T00:29:37.433Z,33.33
2019-04-14T00:32:07.337Z,34.07
2019-04-14T00:35:04.529Z,35.67
2019-04-14T00:37:40.979Z,34.07
2019-04-14T00:40:26.669Z,34.23
2019-04-14T00:43:26.630Z,34.00
2019-04-14T00:46:02.349Z,35.73
2019-04-14T00:48:32.028Z,32.10
2019-04-14T00:51:00.928Z,33.43
2019-04-14T00:53:29.825Z,33.23
2019-04-14T00:55:59.718Z,33.17
2019-04-14T00:58:29.899Z,29.47
2019-04-14T01:00:58.993Z,36.37
2019-04-14T01:03:28.740Z,35.67
2019-04-14T01:05:58.928Z,34.60
2019-04-14T01:08:29.161Z,35.57
2019-04-14T01:10:58.394Z,33.00
2019-04-14T01:13:27.343Z,39.03
2019-04-14T01:16:03.889Z,33.30
2019-04-14T01:18:27.634Z,37.23
2019-04-14T01:20:57.845Z,34.03
2019-04-14T01:23:28.210Z,35.77
2019-04-14T01:25:58.385Z,35.40
2019-04-14T01:28:28.694Z,32.80
2019-04-14T01:30:58.932Z,37.20
2019-04-14T01:33:29.287Z,34.63
2019-04-14T01:35:59.507Z,35.33
2019-04-14T01:38:29.705Z,37.10
2019-04-14T01:40:59.833Z,35.67
2019-04-14T01:43:29.980Z,35.80
2019-04-14T01:46:08.019Z,34.20
2019-04-14T01:48:30.056Z,35.23
2019-04-14T01:51:09.234Z,34.97
2019-04-14T01:53:46.687Z,34.70
2019-04-14T01:57:03.185Z,35.70
2019-04-14T01:59:32.659Z,31.53
2019-04-14T02:02:02.996Z,30.57
2019-04-14T02:04:31.952Z,31.47
2019-04-14T02:07:01.628Z,36.30
2019-04-14T02:09:31.636Z,36.30
2019-04-14T02:12:01.635Z,35.97
2019-04-14T02:14:30.580Z,36.00
2019-04-14T02:17:02.216Z,33.90
2019-04-14T02:19:30.644Z,36.67
2019-04-14T02:22:00.614Z,33.17
2019-04-14T02:24:30.915Z,32.50
2019-04-14T02:27:01.173Z,34.87
2019-04-14T02:29:30.221Z,34.33
2019-04-14T02:32:30.216Z,33.70
2019-04-14T02:35:00.253Z,40.73
2019-04-14T02:37:31.879Z,36.57
2019-04-14T02:40:03.845Z,34.90
2019-04-14T02:42:44.088Z,33.57
2019-04-14T02:45:02.469Z,36.13
2019-04-14T02:47:48.953Z,33.83
2019-04-14T02:49:59.717Z,35.93
2019-04-14T02:52:29.891Z,37.00
2019-04-14T02:54:59.698Z,34.13
2019-04-14T02:57:30.952Z,38.57
2019-04-14T03:00:07.895Z,39.63
2019-04-14T03:02:40.914Z,34.63
2019-04-14T03:10:01.282Z,30.47
2019-04-14T03:18:24.049Z,37.13
2019-04-14T03:21:15.463Z,33.50
2019-04-14T03:23:57.906Z,35.77
2019-04-14T03:26:33.971Z,39.13
2019-04-14T03:29:19.585Z,36.20
2019-04-14T03:31:59.690Z,38.90
2019-04-14T03:34:34.555Z,34.47
2019-04-14T03:39:15.577Z,32.40
2019-04-14T03:41:45.591Z,36.37
2019-04-14T03:44:18.614Z,38.37
2019-04-14T03:49:26.301Z,32.17
2019-04-14T03:51:50.539Z,33.13
2019-04-14T03:54:15.951Z,30.00
2019-04-14T03:56:46.674Z,35.97
2019-04-14T03:59:17.537Z,33.90
2019-04-14T04:01:47.748Z,39.53
2019-04-14T04:04:16.880Z,39.20
2019-04-14T04:06:46.394Z,35.53
2019-04-14T04:09:15.381Z,36.70
2019-04-14T04:11:45.521Z,35.47
2019-04-14T04:14:14.473Z,36.17
2019-04-14T04:17:01.558Z,32.17
2019-04-14T04:19:53.562Z,35.77
2019-04-14T04:22:41.199Z,35.43
2019-04-14T04:25:24.725Z,39.53
2019-04-14T04:28:12.862Z,34.70
2019-04-14T04:30:47.005Z,39.20
2019-04-14T04:33:24.617Z,41.60
2019-04-14T04:35:58.323Z,35.43
2019-04-14T04:38:46.328Z,38.87
2019-04-14T04:41:16.745Z,38.47
2019-04-14T04:43:45.781Z,38.93
2019-04-14T04:46:15.594Z,36.93
2019-04-14T04:48:57.467Z,40.10
2019-04-14T04:51:16.022Z,37.30
2019-04-14T04:53:45.994Z,40.87
2019-04-14T04:56:15.125Z,42.13
2019-04-14T04:58:43.982Z,40.30
2019-04-14T05:01:12.857Z,42.00
2019-04-14T05:03:42.782Z,40.83
2019-04-14T05:06:54.785Z,39.00
2019-04-14T05:09:42.723Z,37.70
2019-04-14T05:12:19.681Z,39.07
2019-04-14T05:14:54.493Z,40.20
2019-04-14T05:17:23.597Z,39.53
2019-04-14T05:19:52.485Z,40.73
2019-04-14T05:22:22.313Z,40.97
2019-04-14T05:24:51.299Z,36.20
2019-04-14T05:27:21.060Z,43.07
2019-04-14T05:29:51.467Z,38.00
2019-04-14T05:32:21.546Z,41.53
2019-04-14T05:34:50.513Z,37.90
2019-04-14T05:37:20.301Z,40.23
2019-04-14T05:39:50.402Z,39.93
2019-04-14T05:42:24.044Z,36.40
2019-04-14T05:44:49.910Z,38.00
2019-04-14T05:47:19.730Z,36.73
2019-04-14T05:49:52.697Z,37.40
2019-04-14T05:52:20.633Z,39.57
2019-04-14T05:54:49.855Z,36.27
2019-04-14T05:57:19.781Z,38.27
2019-04-14T05:59:48.741Z,38.87
2019-04-14T06:02:18.077Z,39.57
2019-04-14T06:04:48.154Z,36.27
2019-04-14T06:07:17.264Z,37.97
2019-04-14T06:09:46.077Z,43.33
2019-04-14T06:12:15.209Z,37.60
2019-04-14T06:14:44.338Z,38.67
2019-04-14T06:17:13.150Z,40.33
2019-04-14T06:19:41.966Z,45.77
2019-04-14T06:22:11.484Z,39.40
2019-04-14T06:24:40.313Z,38.13
2019-04-14T06:27:09.361Z,41.97
2019-04-14T06:29:38.188Z,37.33
2019-04-14T06:32:35.392Z,34.20
2019-04-14T06:35:48.568Z,32.13
2019-04-14T06:38:23.984Z,33.03
2019-04-14T06:41:01.800Z,31.57
2019-04-14T06:43:30.857Z,34.40
2019-04-14T06:45:59.857Z,31.90
2019-04-14T06:48:28.910Z,31.93
2019-04-14T06:50:57.969Z,34.03
2019-04-14T06:53:27.092Z,34.40
2019-04-14T06:55:56.481Z,34.50
2019-04-14T06:58:25.370Z,34.37
2019-04-14T07:00:54.205Z,34.43
2019-04-14T07:03:23.040Z,37.10
2019-04-14T07:05:51.868Z,32.13
2019-04-14T07:08:20.676Z,29.67
2019-04-14T07:10:49.817Z,32.33
2019-04-14T07:13:19.683Z,34.07
2019-04-14T07:15:48.725Z,29.77
2019-04-14T07:18:17.538Z,33.53
2019-04-14T07:20:46.354Z,31.60
2019-04-14T07:23:15.406Z,31.37
2019-04-14T07:25:44.308Z,30.70
2019-04-14T07:28:13.129Z,33.50
2019-04-14T07:31:00.174Z,36.70
2019-04-14T07:33:38.746Z,32.98
2019-04-14T07:36:32.910Z,35.20
2019-04-14T07:39:27.214Z,33.40
2019-04-14T07:42:02.579Z,31.57
2019-04-14T07:44:53.373Z,31.05
2019-04-14T07:47:41.256Z,31.77
2019-04-14T07:50:37.857Z,32.28
2019-04-14T07:53:41.052Z,33.18
2019-04-14T07:56:20.289Z,29.32
2019-04-14T07:59:07.381Z,33.78
2019-04-14T08:02:01.821Z,32.90
2019-04-14T08:04:33.882Z,29.18
2019-04-14T08:07:02.718Z,29.37
2019-04-14T08:09:31.537Z,35.17
2019-04-14T08:12:00.512Z,32.63
2019-04-14T08:14:29.333Z,33.40
2019-04-14T08:16:58.336Z,30.30
2019-04-14T08:19:27.232Z,39.40
2019-04-14T08:21:56.064Z,30.65
2019-04-14T08:24:33.742Z,32.33
2019-04-14T08:27:02.570Z,29.92
2019-04-14T08:29:31.395Z,30.77
2019-04-14T08:32:00.457Z,37.75
2019-04-14T08:34:29.354Z,34.00
2019-04-14T08:36:58.177Z,32.88
2019-04-14T08:39:27.237Z,36.20
2019-04-14T08:42:13.241Z,29.55
2019-04-14T08:44:44.253Z,28.90
2019-04-14T08:47:50.651Z,32.60
2019-04-14T08:50:39.762Z,28.77
2019-04-14T08:53:26.484Z,31.97
2019-04-14T08:56:06.672Z,30.50
2019-04-14T08:59:03.537Z,29.57
2019-04-14T09:01:46.913Z,28.73
2019-04-14T09:04:20.664Z,30.77
2019-04-14T09:06:57.353Z,30.68
2019-04-14T09:09:39.209Z,30.30
2019-04-14T09:12:15.636Z,28.05
2019-04-14T09:14:56.192Z,24.98
2019-04-14T09:17:15.704Z,28.67
2019-04-14T09:19:44.613Z,29.00
2019-04-14T09:22:13.441Z,26.90
2019-04-14T09:24:42.568Z,28.75
2019-04-14T09:27:11.472Z,31.00
2019-04-14T09:29:40.292Z,29.60
2019-04-14T09:32:10.455Z,27.73
2019-04-14T09:34:39.910Z,25.52
2019-04-14T09:37:09.046Z,26.90
2019-04-14T09:39:37.949Z,28.87
2019-04-14T09:42:06.801Z,30.30
2019-04-14T09:44:35.633Z,25.82
2019-04-14T09:47:04.790Z,28.27
2019-04-14T09:49:33.689Z,29.18
2019-04-14T09:52:02.584Z,31.55
2019-04-14T09:54:31.648Z,26.02
2019-04-14T09:57:00.474Z,24.80
2019-04-14T09:59:29.382Z,26.75
2019-04-14T10:01:58.220Z,28.60
2019-04-14T10:04:27.241Z,26.00
2019-04-14T10:06:56.054Z,26.45
2019-04-14T10:09:25.043Z,27.65
2019-04-14T10:11:56.455Z,26.80
2019-04-14T10:14:24.491Z,27.13
2019-04-14T10:16:53.324Z,26.37
2019-04-14T10:19:22.236Z,24.10
2019-04-14T10:21:51.061Z,31.30
2019-04-14T10:24:19.896Z,26.10
2019-04-14T10:26:48.728Z,25.85
2019-04-14T10:29:17.549Z,40.05
2019-04-14T10:31:46.677Z,26.82
2019-04-14T10:34:34.965Z,25.97
2019-04-14T10:37:03.777Z,26.57
2019-04-14T10:39:32.913Z,25.02
2019-04-14T10:42:02.117Z,29.67
2019-04-14T10:44:30.950Z,25.68
2019-04-14T10:46:59.769Z,23.98
2019-04-14T10:49:28.913Z,23.47
2019-04-14T10:51:57.728Z,24.12
2019-04-14T10:54:26.701Z,27.37
2019-04-14T10:56:55.524Z,21.37
2019-04-14T10:59:43.576Z,22.30
2019-04-14T11:02:12.720Z,25.10
2019-04-14T11:04:41.622Z,24.30
2019-04-14T11:07:21.739Z,22.95
2019-04-14T11:09:50.685Z,22.52
2019-04-14T11:12:19.544Z,22.62
2019-04-14T11:14:48.862Z,22.60
2019-04-14T11:17:17.963Z,20.17
2019-04-14T11:19:46.783Z,22.60
2019-04-14T11:22:15.609Z,21.85
2019-04-14T11:24:44.445Z,21.62
2019-04-14T11:27:13.416Z,26.52
2019-04-14T11:29:42.249Z,27.37
2019-04-14T11:32:36.272Z,24.77
2019-04-14T11:35:22.148Z,24.23
2019-04-14T11:38:13.195Z,23.27
2019-04-14T11:40:45.234Z,22.93
2019-04-14T11:43:14.280Z,21.17
2019-04-14T11:45:43.450Z,21.23
2019-04-14T11:48:12.340Z,21.37
2019-04-14T11:50:41.412Z,21.95
2019-04-14T11:53:10.229Z,21.15
2019-04-14T11:55:39.468Z,20.02
2019-04-14T11:58:08.365Z,22.70
2019-04-14T12:00:50.588Z,21.75
2019-04-14T12:03:25.562Z,22.05
2019-04-14T12:06:09.072Z,20.60
2019-04-14T12:09:02.774Z,21.87
2019-04-14T12:11:31.836Z,23.77
2019-04-14T12:14:00.660Z,20.08
2019-04-14T12:16:29.485Z,21.82
2019-04-14T12:18:58.309Z,20.32
2019-04-14T12:21:27.220Z,19.98
2019-04-14T12:23:56.036Z,19.52
2019-04-14T12:26:25.177Z,21.25
2019-04-14T12:29:14.117Z,20.97
2019-04-14T12:31:44.107Z,21.15
2019-04-14T12:34:13.380Z,21.95
2019-04-14T12:36:42.287Z,22.85
2019-04-14T12:39:20.762Z,23.77
2019-04-14T12:42:08.813Z,23.62
2019-04-14T12:44:55.644Z,21.77
2019-04-14T12:47:55.792Z,19.80
2019-04-14T12:50:28.856Z,21.50
2019-04-14T12:52:58.278Z,22.55
2019-04-14T12:55:27.182Z,21.73
2019-04-14T12:57:58.910Z,20.70
2019-04-14T13:00:59.193Z,22.77
2019-04-14T13:03:29.589Z,21.35
2019-04-14T13:05:58.636Z,22.82
2019-04-14T13:08:27.537Z,24.18
2019-04-14T13:10:56.510Z,21.85
2019-04-14T13:13:25.649Z,22.85
2019-04-14T13:15:54.708Z,23.20
2019-04-14T13:18:23.608Z,23.90
2019-04-14T13:20:52.492Z,22.10
2019-04-14T13:23:21.560Z,22.30
2019-04-14T13:25:50.461Z,25.25
2019-04-14T13:28:19.296Z,25.17
2019-04-14T13:30:49.985Z,21.85
2019-04-14T13:33:18.896Z,21.27
2019-04-14T13:35:47.860Z,22.95
2019-04-14T13:38:16.699Z,26.95
2019-04-14T13:40:45.761Z,23.02
2019-04-14T13:43:14.825Z,22.58
2019-04-14T13:45:43.730Z,24.98
2019-04-14T13:48:12.549Z,27.55
2019-04-14T13:50:42.100Z,24.43
2019-04-14T13:53:10.939Z,26.40
2019-04-14T13:55:39.772Z,42.33
2019-04-14T13:58:08.859Z,25.17
2019-04-14T14:00:38.529Z,31.05
2019-04-14T14:03:07.684Z,34.23
2019-04-14T14:05:36.499Z,22.52
2019-04-14T14:08:05.487Z,23.62
2019-04-14T14:10:34.384Z,24.52
2019-04-14T14:13:40.756Z,24.05
2019-04-14T14:16:18.069Z,24.57
2019-04-14T14:18:56.806Z,25.02
2019-04-14T14:21:41.899Z,23.20
2019-04-14T14:24:28.844Z,26.93
2019-04-14T14:26:57.673Z,24.02
2019-04-14T14:29:26.505Z,24.12
2019-04-14T14:31:56.085Z,26.23
2019-04-14T14:34:24.985Z,23.67
2019-04-14T14:36:53.951Z,25.68
2019-04-14T14:39:22.917Z,23.98
2019-04-14T14:41:51.740Z,23.63
2019-04-14T14:44:22.419Z,24.60
2019-04-14T14:47:01.948Z,24.50
2019-04-14T14:50:05.540Z,25.62
2019-04-14T14:52:35.308Z,25.90
2019-04-14T14:55:04.798Z,26.70
2019-04-14T14:57:33.702Z,26.73
2019-04-14T15:00:02.605Z,23.05
2019-04-14T15:02:31.592Z,23.83
2019-04-14T15:05:00.429Z,23.73
2019-04-14T15:07:29.249Z,24.07
2019-04-14T15:09:58.068Z,22.62
2019-04-14T15:12:26.888Z,24.10
2019-04-14T15:14:55.713Z,24.87
2019-04-14T15:17:25.225Z,24.30
2019-04-14T15:19:54.125Z,24.67
2019-04-14T15:22:23.088Z,22.45
2019-04-14T15:25:11.209Z,24.37
2019-04-14T15:27:40.283Z,22.30
2019-04-14T15:30:14.229Z,23.10
2019-04-14T15:32:43.110Z,21.13
2019-04-14T15:35:12.089Z,22.63
2019-04-14T15:37:41.201Z,23.30
2019-04-14T15:40:10.568Z,22.33
2019-04-14T15:42:39.625Z,21.17
2019-04-14T15:45:09.724Z,22.87
2019-04-14T15:47:38.557Z,22.47
2019-04-14T15:50:08.060Z,34.07
2019-04-14T15:52:37.090Z,22.10
2019-04-14T15:55:06.358Z,20.47
2019-04-14T15:57:46.553Z,20.77
2019-04-14T16:00:34.590Z,23.87
2019-04-14T16:03:23.552Z,21.03
2019-04-14T16:06:10.536Z,24.43
2019-04-14T16:08:45.533Z,24.00
2019-04-14T16:11:32.556Z,26.10
2019-04-14T16:14:19.436Z,23.67
2019-04-14T16:17:10.898Z,23.20
2019-04-14T16:19:53.525Z,23.03
2019-04-14T16:22:22.592Z,24.67
2019-04-14T16:24:51.405Z,21.57
2019-04-14T16:27:39.312Z,22.87
2019-04-14T16:30:27.876Z,26.63
2019-04-14T16:33:18.804Z,27.70
2019-04-14T16:35:47.985Z,22.27
2019-04-14T16:38:17.493Z,24.93
2019-04-14T16:40:46.617Z,22.20
2019-04-14T16:43:15.524Z,22.33
2019-04-14T16:45:44.419Z,23.67
2019-04-14T16:48:13.549Z,20.67
2019-04-14T16:50:42.360Z,27.80
2019-04-14T16:53:18.979Z,25.73
2019-04-14T16:56:09.764Z,33.33
2019-04-14T16:59:03.925Z,22.87
2019-04-14T17:01:35.412Z,23.37
2019-04-14T17:04:04.592Z,23.23
2019-04-14T17:06:33.668Z,24.13
2019-04-14T17:09:02.781Z,21.80
2019-04-14T17:11:31.832Z,22.53
2019-04-14T17:14:11.108Z,26.57
2019-04-14T17:16:50.858Z,24.50
2019-04-14T17:19:24.493Z,24.03
2019-04-14T17:22:08.748Z,27.57
2019-04-14T17:24:49.825Z,23.53
2019-04-14T17:27:46.428Z,28.20
2019-04-14T17:30:49.585Z,21.43
2019-04-14T17:33:43.069Z,22.00
2019-04-14T17:36:26.957Z,18.83
2019-04-14T17:39:10.241Z,22.03
2019-04-14T17:41:58.505Z,24.50
2019-04-14T17:44:46.408Z,23.83
2019-04-14T17:47:36.874Z,26.43
2019-04-14T17:50:14.925Z,23.70
2019-04-14T17:52:47.470Z,22.33
2019-04-14T17:55:27.918Z,23.40
2019-04-14T17:58:15.865Z,23.13
2019-04-14T18:01:02.668Z,25.90
2019-04-14T18:03:38.931Z,24.60
2019-04-14T18:06:12.716Z,27.97
2019-04-14T18:09:06.634Z,28.20
2019-04-14T18:11:49.508Z,23.90
2019-04-14T18:14:41.373Z,28.13
2019-04-14T18:17:30.399Z,30.53
2019-04-14T18:20:05.550Z,25.00
2019-04-14T18:22:34.762Z,24.67
2019-04-14T18:25:04.760Z,25.00
2019-04-14T18:27:38.153Z,26.37
2019-04-14T18:30:16.225Z,28.00
2019-04-14T18:33:03.106Z,28.23
2019-04-14T18:35:37.081Z,25.37
2019-04-14T18:38:16.405Z,25.37
2019-04-14T18:40:55.236Z,25.20
2019-04-14T18:43:41.632Z,25.87
2019-04-14T18:46:29.849Z,26.87
2019-04-14T18:49:13.748Z,24.00
2019-04-14T18:51:54.893Z,27.70
2019-04-14T18:54:53.784Z,25.93
2019-04-14T18:57:43.993Z,24.97
2019-04-14T19:00:34.784Z,27.40
2019-04-14T19:03:03.693Z,32.07
2019-04-14T19:05:32.513Z,27.37
2019-04-14T19:08:01.412Z,25.87
2019-04-14T19:10:30.758Z,29.63
2019-04-14T19:13:11.613Z,24.33
2019-04-14T19:15:46.929Z,24.37
2019-04-14T19:18:21.585Z,23.60
2019-04-14T19:20:56.736Z,29.17
2019-04-14T19:23:25.629Z,42.70
2019-04-14T19:25:54.538Z,26.73
2019-04-14T19:28:23.345Z,29.10
2019-04-14T19:30:52.164Z,30.50
2019-04-14T19:33:21.407Z,29.77
2019-04-14T19:35:50.231Z,27.83
2019-04-14T19:38:19.082Z,39.17
2019-04-14T19:40:48.152Z,27.60
2019-04-14T19:43:23.657Z,24.60
2019-04-14T19:45:47.608Z,25.63
2019-04-14T19:48:16.788Z,25.43
2019-04-14T19:50:45.898Z,27.40
2019-04-14T19:53:14.965Z,32.40
2019-04-14T19:55:44.511Z,26.33
2019-04-14T19:58:13.637Z,34.37
2019-04-14T20:00:43.208Z,31.10
2019-04-14T20:03:20.269Z,33.20
2019-04-14T20:06:16.477Z,28.57
2019-04-14T20:08:45.949Z,29.57
2019-04-14T20:11:15.245Z,28.43
2019-04-14T20:13:46.772Z,29.43
2019-04-14T20:16:48.213Z,27.80
2019-04-14T20:19:54.720Z,28.80
2019-04-14T20:22:32.086Z,31.50
2019-04-14T20:25:12.028Z,32.33
2019-04-14T20:27:47.983Z,33.90
2019-04-14T20:30:31.810Z,36.97
2019-04-14T20:33:00.933Z,33.30
2019-04-14T20:35:33.198Z,36.60
2019-04-14T20:38:02.369Z,33.00
2019-04-14T20:40:31.362Z,41.57
2019-04-14T20:43:00.209Z,34.53
2019-04-14T20:45:29.252Z,34.33
2019-04-14T20:47:58.419Z,36.90
2019-04-14T20:50:27.354Z,33.10
2019-04-14T20:52:56.262Z,36.97
2019-04-14T20:55:25.109Z,37.90
2019-04-14T20:57:54.105Z,34.17
2019-04-14T21:00:23.169Z,39.17
2019-04-14T21:03:06.141Z,41.13
2019-04-14T21:05:52.260Z,41.33
2019-04-14T21:08:45.219Z,41.57
2019-04-14T21:11:27.167Z,41.43
2019-04-14T21:14:06.361Z,40.30
2019-04-14T21:16:43.225Z,36.33
2019-04-14T21:19:17.446Z,46.33
2019-04-14T21:21:53.422Z,43.43
2019-04-14T21:24:36.257Z,44.90
2019-04-14T21:27:19.452Z,45.13
2019-04-14T21:30:25.615Z,44.33
2019-04-14T21:33:01.349Z,44.60
2019-04-14T21:35:51.937Z,47.30
2019-04-14T21:38:45.961Z,43.17
2019-04-14T21:41:19.341Z,42.03
2019-04-14T21:43:48.253Z,50.37
2019-04-14T21:46:17.168Z,48.33
2019-04-14T21:48:46.040Z,46.70
2019-04-14T21:51:14.997Z,45.07
2019-04-14T21:53:44.770Z,48.97
2019-04-14T21:56:13.980Z,47.80
2019-04-14T21:58:57.312Z,44.50
2019-04-14T22:01:53.461Z,45.90
2019-04-14T22:04:53.892Z,47.90
2019-04-14T22:07:29.772Z,47.33
2019-04-14T22:10:05.351Z,50.63
2019-04-14T22:12:34.922Z,52.10
2019-04-14T22:15:04.047Z,50.80
2019-04-14T22:17:33.435Z,54.53
2019-04-14T22:20:02.420Z,52.10
2019-04-14T22:22:31.261Z,50.97
2019-04-14T22:25:00.158Z,52.93
2019-04-14T22:27:29.071Z,51.97
2019-04-14T22:29:57.993Z,55.10
2019-04-14T22:32:26.897Z,53.00
2019-04-14T22:34:55.825Z,51.73
2019-04-14T22:37:24.889Z,54.13
2019-04-14T22:39:53.822Z,53.53
2019-04-14T22:42:22.719Z,51.17
2019-04-14T22:44:51.569Z,49.47
2019-04-14T22:47:20.649Z,62.93
2019-04-14T22:49:49.825Z,55.47
2019-04-14T22:52:18.956Z,54.57
2019-04-14T22:54:47.806Z,55.00
2019-04-14T22:57:16.708Z,52.40
2019-04-14T22:59:45.545Z,54.60
2019-04-14T23:02:33.008Z,56.77
2019-04-14T23:05:17.176Z,52.83
2019-04-14T23:07:55.297Z,51.10
2019-04-14T23:10:53.275Z,51.80
2019-04-14T23:13:37.833Z,58.97
2019-04-14T23:16:41.255Z,53.77
2019-04-14T23:19:14.145Z,60.83
2019-04-14T23:21:57.909Z,55.03
2019-04-14T23:24:30.189Z,54.87
2019-04-14T23:26:59.468Z,54.30
2019-04-14T23:29:28.454Z,51.83
2019-04-14T23:31:57.378Z,57.07
2019-04-14T23:34:26.756Z,51.70
2019-04-14T23:36:55.666Z,52.80
2019-04-14T23:39:24.513Z,51.87
2019-04-14T23:41:53.534Z,53.60
2019-04-14T23:44:22.918Z,55.13
2019-04-14T23:46:51.834Z,56.63
2019-04-14T23:49:20.683Z,54.17
2019-04-14T23:51:49.797Z,59.60
2019-04-14T23:54:18.721Z,57.30
2019-04-14T23:56:47.639Z,57.90
2019-04-14T23:59:16.679Z,56.27
